createdAt,value
2023-03-06T00:02:54.851Z,1.73
2023-03-06T00:05:57.840Z,1.80
2023-03-06T00:08:59.646Z,1.52
2023-03-06T00:12:01.383Z,1.70
2023-03-06T00:15:05.544Z,1.40
2023-03-06T00:18:07.984Z,1.60
2023-03-06T00:21:09.712Z,2.10
2023-03-06T00:24:11.349Z,1.80
2023-03-06T00:27:12.983Z,2.15
2023-03-06T00:30:18.786Z,1.75
2023-03-06T00:33:20.631Z,2.22
2023-03-06T00:36:22.293Z,2.55
2023-03-06T00:39:24.478Z,1.95
2023-03-06T00:42:28.368Z,2.22
2023-03-06T00:45:30.150Z,2.15
2023-03-06T00:48:33.575Z,1.85
2023-03-06T00:51:35.504Z,1.80
2023-03-06T00:54:37.570Z,2.53
2023-03-06T00:57:39.336Z,2.10
2023-03-06T01:00:41.077Z,2.35
2023-03-06T01:03:42.883Z,2.40
2023-03-06T01:06:44.736Z,2.15
2023-03-06T01:09:46.582Z,2.60
2023-03-06T01:12:49.872Z,2.88
2023-03-06T01:15:53.338Z,2.40
2023-03-06T01:18:56.766Z,2.58
2023-03-06T01:21:58.509Z,2.60
2023-03-06T01:25:00.202Z,2.30
2023-03-06T01:28:01.849Z,2.60
2023-03-06T01:31:04.362Z,2.42
2023-03-06T01:34:06.372Z,2.65
2023-03-06T01:37:08.175Z,2.50
2023-03-06T01:40:12.409Z,3.25
2023-03-06T01:43:30.439Z,2.90
2023-03-06T01:46:43.211Z,3.05
2023-03-06T01:49:44.899Z,2.83
2023-03-06T01:52:59.912Z,2.85
2023-03-06T01:56:01.775Z,2.92
2023-03-06T01:59:04.793Z,2.78
2023-03-06T02:02:10.150Z,2.80
2023-03-06T02:05:12.364Z,2.58
2023-03-06T02:08:17.589Z,3.25
2023-03-06T02:11:25.756Z,2.72
2023-03-06T02:14:29.046Z,2.80
2023-03-06T02:17:30.685Z,2.60
2023-03-06T02:20:40.691Z,2.80
2023-03-06T02:23:59.874Z,2.85
2023-03-06T02:27:04.248Z,3.08
2023-03-06T02:30:10.869Z,2.78
2023-03-06T02:33:22.146Z,2.70
2023-03-06T02:36:23.902Z,3.08
2023-03-06T02:39:28.122Z,3.05
2023-03-06T02:42:30.341Z,2.97
2023-03-06T02:45:45.322Z,2.92
2023-03-06T02:48:47.399Z,2.95
2023-03-06T02:51:50.194Z,3.00
2023-03-06T02:54:52.161Z,3.00
2023-03-06T02:57:54.129Z,3.20
2023-03-06T03:00:56.002Z,2.50
2023-03-06T03:03:58.239Z,2.95
2023-03-06T03:07:00.420Z,3.65
2023-03-06T03:10:02.658Z,3.08
2023-03-06T03:13:04.416Z,3.03
2023-03-06T03:16:14.092Z,2.40
2023-03-06T03:19:16.053Z,2.40
2023-03-06T03:22:18.590Z,2.70
2023-03-06T03:25:21.710Z,2.35
2023-03-06T03:28:23.417Z,2.05
2023-03-06T03:31:26.169Z,2.88
2023-03-06T03:34:28.393Z,2.30
2023-03-06T03:37:30.828Z,2.28
2023-03-06T03:40:33.300Z,2.33
2023-03-06T03:43:35.192Z,2.10
2023-03-06T03:46:38.116Z,2.35
2023-03-06T03:49:44.794Z,2.45
2023-03-06T03:52:46.954Z,2.88
2023-03-06T03:55:49.209Z,2.97
2023-03-06T03:58:53.808Z,2.33
2023-03-06T04:01:56.696Z,2.65
2023-03-06T04:04:59.977Z,2.65
2023-03-06T04:08:03.488Z,2.70
2023-03-06T04:11:06.681Z,2.50
2023-03-06T04:14:09.865Z,2.30
2023-03-06T04:17:12.304Z,2.58
2023-03-06T04:20:14.766Z,2.90
2023-03-06T04:23:18.609Z,2.88
2023-03-06T04:26:21.145Z,2.55
2023-03-06T04:29:23.963Z,2.55
2023-03-06T04:32:26.061Z,2.75
2023-03-06T04:35:28.454Z,3.97
2023-03-06T04:38:35.816Z,3.03
2023-03-06T04:41:40.982Z,2.70
2023-03-06T04:44:43.349Z,2.70
2023-03-06T04:47:45.092Z,3.03
2023-03-06T04:50:47.267Z,3.72
2023-03-06T04:53:49.058Z,3.30
2023-03-06T04:56:51.271Z,3.47
2023-03-06T04:59:52.854Z,4.32
2023-03-06T05:02:54.656Z,4.07
2023-03-06T05:05:56.270Z,3.85
2023-03-06T05:08:58.389Z,4.25
2023-03-06T05:12:00.094Z,3.63
2023-03-06T05:15:01.896Z,4.80
2023-03-06T05:18:04.397Z,4.15
2023-03-06T05:21:06.695Z,4.00
2023-03-06T05:24:09.538Z,4.10
2023-03-06T05:27:11.749Z,4.60
2023-03-06T05:30:15.173Z,4.47
2023-03-06T05:33:16.975Z,4.25
2023-03-06T05:36:18.613Z,4.55
2023-03-06T05:39:21.297Z,5.72
2023-03-06T05:42:23.272Z,5.07
2023-03-06T05:45:24.905Z,4.93
2023-03-06T05:48:26.557Z,5.00
2023-03-06T05:51:28.213Z,5.60
2023-03-06T05:54:31.536Z,6.03
2023-03-06T05:57:33.675Z,5.80
2023-03-06T06:00:35.347Z,5.13
2023-03-06T06:03:37.531Z,4.97
2023-03-06T06:06:39.085Z,5.60
2023-03-06T06:09:41.324Z,5.10
2023-03-06T06:12:43.039Z,5.22
2023-03-06T06:15:44.984Z,5.22
2023-03-06T06:18:46.724Z,5.53
2023-03-06T06:21:51.896Z,6.05
2023-03-06T06:24:53.855Z,5.60
2023-03-06T06:27:56.748Z,5.55
2023-03-06T06:30:58.316Z,5.55
2023-03-06T06:34:00.200Z,5.65
2023-03-06T06:37:01.955Z,5.82
2023-03-06T06:40:04.636Z,5.65
2023-03-06T06:43:06.238Z,5.50
2023-03-06T06:46:38.775Z,5.35
2023-03-06T06:49:29.874Z,6.22
2023-03-06T06:52:31.633Z,6.20
2023-03-06T06:55:33.528Z,7.05
2023-03-06T06:58:35.257Z,5.70
2023-03-06T07:01:37.131Z,6.40
2023-03-06T07:04:49.347Z,6.07
2023-03-06T07:07:58.343Z,6.70
2023-03-06T07:11:07.530Z,6.72
2023-03-06T07:14:09.262Z,7.53
2023-03-06T07:17:10.968Z,8.77
2023-03-06T07:20:12.868Z,8.32
2023-03-06T07:23:14.808Z,8.32
2023-03-06T07:26:17.108Z,7.75
2023-03-06T07:29:18.654Z,8.20
2023-03-06T07:32:21.523Z,8.55
2023-03-06T07:35:24.122Z,8.75
2023-03-06T07:38:26.135Z,8.50
2023-03-06T07:41:27.893Z,7.95
2023-03-06T07:44:29.579Z,8.45
2023-03-06T07:47:31.223Z,7.45
2023-03-06T07:50:33.238Z,8.40
2023-03-06T07:53:35.738Z,7.95
2023-03-06T07:56:37.675Z,7.03
2023-03-06T07:59:39.326Z,7.47
2023-03-06T08:02:42.194Z,7.20
2023-03-06T08:05:59.581Z,7.47
2023-03-06T08:09:01.893Z,6.72
2023-03-06T08:12:04.015Z,7.72
2023-03-06T08:15:06.438Z,6.68
2023-03-06T08:18:08.794Z,6.63
2023-03-06T08:21:13.566Z,7.70
2023-03-06T08:24:17.138Z,7.05
2023-03-06T08:27:18.758Z,6.25
2023-03-06T08:30:21.615Z,6.93
2023-03-06T08:33:23.831Z,6.28
2023-03-06T08:36:26.166Z,6.47
2023-03-06T08:39:29.086Z,6.78
2023-03-06T08:42:31.590Z,7.00
2023-03-06T08:45:33.445Z,7.35
2023-03-06T08:48:35.424Z,7.97
2023-03-06T08:51:37.179Z,7.63
2023-03-06T08:54:39.817Z,7.15
2023-03-06T08:57:41.554Z,6.97
2023-03-06T09:00:43.931Z,6.75
2023-03-06T09:03:46.160Z,7.55
2023-03-06T09:06:48.782Z,6.70
2023-03-06T09:09:51.766Z,6.90
2023-03-06T09:12:55.370Z,5.57
2023-03-06T09:15:57.527Z,5.30
2023-03-06T09:18:59.393Z,5.43
2023-03-06T09:22:01.122Z,5.18
2023-03-06T09:25:04.064Z,4.82
2023-03-06T09:28:11.734Z,3.83
2023-03-06T09:31:19.776Z,3.75
2023-03-06T09:34:21.659Z,3.13
2023-03-06T09:37:23.529Z,3.00
2023-03-06T09:40:39.748Z,2.20
2023-03-06T09:43:47.037Z,3.10
2023-03-06T09:47:22.520Z,2.45
2023-03-06T09:50:48.775Z,1.60
2023-03-06T09:54:13.025Z,2.30
2023-03-06T09:57:28.151Z,1.50
2023-03-06T10:00:51.319Z,1.40
2023-03-06T10:04:36.374Z,1.40
2023-03-06T10:07:49.567Z,1.50
2023-03-06T10:11:17.285Z,1.88
2023-03-06T10:14:48.451Z,1.60
2023-03-06T10:17:55.463Z,1.70
2023-03-06T10:21:18.713Z,1.90
2023-03-06T10:24:32.079Z,1.52
2023-03-06T10:27:48.423Z,1.60
2023-03-06T10:30:53.274Z,1.33
2023-03-06T10:34:11.462Z,1.15
2023-03-06T10:37:19.701Z,1.02
2023-03-06T10:40:28.200Z,1.20
2023-03-06T10:43:36.265Z,0.90
2023-03-06T10:46:49.115Z,1.08
2023-03-06T10:50:00.397Z,1.00
2023-03-06T10:53:20.532Z,1.20
2023-03-06T10:56:36.936Z,1.30
2023-03-06T10:59:52.283Z,1.27
2023-03-06T11:03:26.577Z,1.20
2023-03-06T11:06:36.362Z,1.45
2023-03-06T11:09:38.797Z,1.30
2023-03-06T11:13:30.741Z,1.20
2023-03-06T11:16:32.416Z,1.23
2023-03-06T11:19:35.715Z,1.10
2023-03-06T11:22:45.980Z,1.30
2023-03-06T11:26:03.813Z,1.45
2023-03-06T11:29:17.593Z,1.75
2023-03-06T11:32:48.235Z,1.00
2023-03-06T11:35:57.906Z,0.90
2023-03-06T11:39:02.114Z,0.60
2023-03-06T11:42:14.075Z,1.08
2023-03-06T11:45:46.345Z,1.13
2023-03-06T11:49:12.303Z,1.17
2023-03-06T11:52:48.824Z,3.90
2023-03-06T11:56:18.490Z,3.80
2023-03-06T11:59:38.283Z,3.60
2023-03-06T12:03:11.273Z,2.72
2023-03-06T12:06:39.502Z,2.92
2023-03-06T12:09:59.401Z,3.85
2023-03-06T12:13:28.857Z,4.00
2023-03-06T12:17:11.277Z,2.58
2023-03-06T12:20:33.112Z,1.60
2023-03-06T12:24:03.569Z,1.20
2023-03-06T12:27:11.269Z,1.10
2023-03-06T12:30:33.633Z,1.20
2023-03-06T12:34:07.704Z,1.15
2023-03-06T12:37:09.908Z,1.48
2023-03-06T12:40:47.014Z,1.25
2023-03-06T12:44:16.708Z,1.00
2023-03-06T12:47:23.739Z,1.73
2023-03-06T12:50:25.485Z,1.30
2023-03-06T12:53:33.032Z,1.20
2023-03-06T12:56:35.690Z,1.75
2023-03-06T12:59:48.897Z,1.23
2023-03-06T13:03:04.485Z,1.40
2023-03-06T13:07:04.852Z,1.40
2023-03-06T13:10:28.276Z,1.20
2023-03-06T13:13:41.610Z,0.95
2023-03-06T13:16:43.377Z,0.80
2023-03-06T13:19:45.207Z,0.70
2023-03-06T13:22:48.052Z,0.60
2023-03-06T13:25:51.046Z,0.50
2023-03-06T13:28:56.380Z,0.60
2023-03-06T13:32:00.882Z,0.70
2023-03-06T13:35:22.776Z,0.80
2023-03-06T13:38:41.176Z,0.75
2023-03-06T13:41:58.227Z,0.60
2023-03-06T13:45:15.312Z,0.98
2023-03-06T13:48:43.002Z,0.70
2023-03-06T13:51:51.463Z,0.70
2023-03-06T13:55:03.366Z,0.98
2023-03-06T13:58:08.070Z,0.80
2023-03-06T14:01:16.091Z,0.55
2023-03-06T14:04:54.873Z,0.82
2023-03-06T14:08:13.759Z,0.98
2023-03-06T14:11:21.515Z,0.77
2023-03-06T14:14:47.965Z,0.70
2023-03-06T14:18:02.006Z,0.68
2023-03-06T14:21:06.188Z,0.60
2023-03-06T14:24:27.044Z,0.73
2023-03-06T14:27:40.083Z,0.88
2023-03-06T14:30:50.349Z,0.70
2023-03-06T14:34:09.084Z,0.60
2023-03-06T14:37:21.759Z,0.80
2023-03-06T14:40:34.286Z,0.70
2023-03-06T14:43:35.878Z,0.63
2023-03-06T14:46:37.773Z,1.02
2023-03-06T14:49:39.672Z,0.75
2023-03-06T14:52:41.622Z,0.90
2023-03-06T14:55:56.952Z,0.60
2023-03-06T14:59:02.443Z,0.77
2023-03-06T15:02:09.712Z,0.50
2023-03-06T15:05:36.358Z,0.70
2023-03-06T15:08:39.979Z,0.60
2023-03-06T15:11:56.466Z,0.60
2023-03-06T15:15:06.063Z,0.60
2023-03-06T15:18:30.143Z,0.75
2023-03-06T15:21:39.152Z,0.60
2023-03-06T15:24:40.968Z,0.65
2023-03-06T15:27:58.197Z,0.90
2023-03-06T15:31:24.502Z,1.10
2023-03-06T15:34:26.380Z,0.80
2023-03-06T15:37:28.940Z,0.70
2023-03-06T15:40:32.022Z,0.75
2023-03-06T15:43:40.484Z,1.27
2023-03-06T15:46:42.424Z,1.00
2023-03-06T15:49:44.725Z,1.05
2023-03-06T15:52:48.342Z,0.73
2023-03-06T15:55:52.137Z,0.90
2023-03-06T15:58:54.332Z,0.88
2023-03-06T16:01:56.086Z,0.90
2023-03-06T16:04:57.731Z,1.00
2023-03-06T16:07:59.390Z,1.00
2023-03-06T16:11:01.111Z,0.68
2023-03-06T16:14:02.997Z,1.10
2023-03-06T16:17:04.673Z,1.00
2023-03-06T16:20:09.142Z,1.10
2023-03-06T16:23:11.154Z,1.10
2023-03-06T16:26:39.830Z,0.80
2023-03-06T16:29:41.448Z,1.00
2023-03-06T16:32:45.047Z,1.45
2023-03-06T16:35:47.346Z,0.98
2023-03-06T16:38:50.942Z,1.60
2023-03-06T16:41:52.624Z,1.30
2023-03-06T16:44:54.385Z,1.40
2023-03-06T16:47:58.782Z,1.40
2023-03-06T16:51:01.580Z,1.38
2023-03-06T16:54:03.586Z,1.70
2023-03-06T16:57:06.665Z,1.30
2023-03-06T17:00:11.298Z,1.25
2023-03-06T17:03:13.423Z,1.52
2023-03-06T17:06:17.640Z,2.08
2023-03-06T17:09:19.240Z,1.67
2023-03-06T17:12:21.800Z,1.50
2023-03-06T17:15:25.013Z,1.58
2023-03-06T17:18:27.897Z,1.40
2023-03-06T17:21:30.420Z,1.40
2023-03-06T17:24:32.624Z,1.85
2023-03-06T17:27:35.413Z,1.85
2023-03-06T17:30:37.448Z,1.67
2023-03-06T17:33:39.110Z,1.77
2023-03-06T17:36:40.736Z,1.25
2023-03-06T17:39:44.932Z,1.60
2023-03-06T17:42:46.798Z,1.30
2023-03-06T17:45:48.640Z,1.63
2023-03-06T17:48:50.595Z,1.60
2023-03-06T17:51:53.076Z,1.73
2023-03-06T17:54:54.820Z,1.70
2023-03-06T17:57:56.424Z,1.60
2023-03-06T18:00:58.415Z,2.45
2023-03-06T18:04:02.412Z,2.20
2023-03-06T18:07:05.398Z,2.35
2023-03-06T18:10:07.466Z,1.85
2023-03-06T18:13:10.779Z,1.95
2023-03-06T18:16:14.781Z,1.80
2023-03-06T18:19:17.697Z,1.83
2023-03-06T18:22:19.546Z,2.25
2023-03-06T18:25:21.222Z,2.08
2023-03-06T18:28:26.034Z,2.45
2023-03-06T18:31:33.772Z,2.15
2023-03-06T18:34:36.553Z,2.30
2023-03-06T18:37:41.049Z,2.92
2023-03-06T18:40:43.120Z,2.70
2023-03-06T18:43:45.557Z,2.13
2023-03-06T18:46:47.215Z,2.05
2023-03-06T18:49:49.454Z,2.20
2023-03-06T18:52:51.007Z,3.10
2023-03-06T18:55:56.529Z,2.53
2023-03-06T18:59:05.865Z,2.55
2023-03-06T19:02:07.794Z,2.78
2023-03-06T19:05:09.792Z,2.80
2023-03-06T19:08:11.924Z,3.05
2023-03-06T19:11:17.030Z,2.72
2023-03-06T19:14:18.538Z,3.10
2023-03-06T19:17:20.440Z,2.78
2023-03-06T19:20:23.324Z,3.10
2023-03-06T19:23:25.176Z,2.67
2023-03-06T19:26:30.982Z,2.97
2023-03-06T19:29:33.475Z,3.50
2023-03-06T19:32:35.521Z,3.17
2023-03-06T19:35:37.695Z,3.53
2023-03-06T19:38:42.845Z,3.92
2023-03-06T19:41:46.630Z,3.75
2023-03-06T19:44:48.375Z,3.53
2023-03-06T19:47:51.163Z,3.17
2023-03-06T19:50:52.818Z,3.33
2023-03-06T19:53:54.586Z,3.40
2023-03-06T19:56:56.918Z,3.60
2023-03-06T19:59:59.246Z,3.75
2023-03-06T20:03:01.800Z,3.60
2023-03-06T20:06:06.985Z,3.40
2023-03-06T20:09:09.384Z,3.33
2023-03-06T20:12:11.220Z,3.25
2023-03-06T20:15:13.112Z,3.40
2023-03-06T20:18:15.464Z,3.67
2023-03-06T20:21:17.007Z,3.72
2023-03-06T20:24:19.137Z,3.83
2023-03-06T20:27:20.716Z,3.42
2023-03-06T20:30:26.358Z,4.28
2023-03-06T20:33:29.297Z,3.83
2023-03-06T20:36:37.329Z,3.92
2023-03-06T20:39:39.283Z,4.10
2023-03-06T20:42:40.820Z,4.50
2023-03-06T20:45:42.492Z,4.00
2023-03-06T20:48:49.339Z,4.95
2023-03-06T20:51:51.197Z,4.72
2023-03-06T20:54:52.829Z,4.78
2023-03-06T20:57:54.708Z,6.13
2023-03-06T21:00:57.450Z,5.40
2023-03-06T21:04:00.345Z,5.75
2023-03-06T21:07:02.117Z,5.28
2023-03-06T21:10:04.606Z,5.65
2023-03-06T21:13:06.722Z,5.85
2023-03-06T21:16:11.483Z,5.70
2023-03-06T21:19:13.478Z,5.70
2023-03-06T21:22:15.415Z,5.88
2023-03-06T21:25:17.259Z,6.70
2023-03-06T21:28:19.249Z,6.55
2023-03-06T21:31:22.151Z,6.97
2023-03-06T21:34:24.024Z,7.55
2023-03-06T21:37:25.947Z,9.05
2023-03-06T21:40:27.812Z,11.00
2023-03-06T21:43:30.221Z,10.48
2023-03-06T21:46:33.126Z,11.95
2023-03-06T21:49:34.685Z,12.43
2023-03-06T21:52:37.423Z,12.02
2023-03-06T21:55:42.388Z,11.38
2023-03-06T21:58:45.006Z,12.95
2023-03-06T22:01:47.574Z,12.18
2023-03-06T22:04:51.293Z,11.35
2023-03-06T22:07:53.460Z,12.85
2023-03-06T22:10:55.343Z,12.00
2023-03-06T22:13:58.101Z,12.65
2023-03-06T22:17:00.493Z,12.75
2023-03-06T22:20:02.544Z,12.32
2023-03-06T22:23:04.120Z,12.82
2023-03-06T22:26:13.536Z,13.60
2023-03-06T22:29:15.416Z,12.90
2023-03-06T22:32:17.111Z,12.90
2023-03-06T22:35:18.770Z,13.63
2023-03-06T22:38:22.863Z,14.10
2023-03-06T22:41:27.001Z,13.77
2023-03-06T22:44:28.612Z,13.98
2023-03-06T22:47:30.180Z,13.95
2023-03-06T22:50:33.482Z,13.35
2023-03-06T22:53:35.688Z,13.45
2023-03-06T22:56:37.600Z,14.25
2023-03-06T22:59:39.284Z,13.85
2023-03-06T23:02:40.957Z,14.75
2023-03-06T23:05:43.378Z,14.05
2023-03-06T23:08:49.449Z,14.63
2023-03-06T23:11:52.065Z,14.27
2023-03-06T23:15:12.355Z,15.10
2023-03-06T23:18:35.167Z,13.77
2023-03-06T23:21:55.264Z,13.57
2023-03-06T23:25:17.653Z,13.93
2023-03-06T23:28:19.581Z,13.95
2023-03-06T23:31:27.600Z,13.50
2023-03-06T23:34:29.374Z,14.07
2023-03-06T23:37:31.178Z,13.07
2023-03-06T23:40:33.541Z,12.32
2023-03-06T23:43:36.412Z,13.30
2023-03-06T23:46:38.300Z,12.60
2023-03-06T23:49:40.426Z,12.50
2023-03-06T23:52:42.287Z,11.93
2023-03-06T23:55:46.351Z,12.75
2023-03-06T23:58:48.341Z,11.48
